Time;durP1;ratioP1;P1;durP2;ratioP2;P2;SDS_P1;SDS_P2;PMS_P1;PMS_P2;Temp;Humidity;BMP_temperature;BMP_pressure;BME280_temperature;BME280_humidity;BME280_pressure;Samples;Min_cycle;Max_cycle;Signal;HPM_P1;HPM_P2
2024/01/22 00:01:42;;;;;;;5.90;2.72;;;10.90;99.90;;;;;;4999400;28;20030;-81
2024/01/22 00:04:08;;;;;;;3.40;1.30;;;10.90;99.90;;;;;;5015094;28;20092;-84
2024/01/22 00:06:37;;;;;;;3.55;2.38;;;11.00;99.90;;;;;;5011851;28;20057;-82
2024/01/22 00:09:04;;;;;;;1.20;1.10;;;11.00;99.90;;;;;;5012658;28;20036;-85
2024/01/22 00:11:29;;;;;;;1.33;0.65;;;11.10;99.90;;;;;;5011259;28;20031;-84
2024/01/22 00:13:56;;;;;;;3.13;1.77;;;11.10;99.90;;;;;;5010194;28;20038;-82
2024/01/22 00:16:23;;;;;;;3.97;1.77;;;11.10;99.90;;;;;;5005853;28;20023;-84
2024/01/22 00:18:49;;;;;;;3.78;2.45;;;11.20;99.90;;;;;;5021294;28;20044;-85
2024/01/22 00:21:15;;;;;;;2.33;1.17;;;11.20;99.90;;;;;;5018017;28;20413;-83
2024/01/22 00:23:41;;;;;;;1.55;1.25;;;11.20;99.90;;;;;;5002149;28;20034;-85
2024/01/22 00:26:12;;;;;;;6.57;1.48;;;11.20;99.90;;;;;;5000274;28;20019;-86
2024/01/22 00:28:39;;;;;;;10.60;2.45;;;11.20;99.90;;;;;;4998390;28;20037;-86
2024/01/22 00:31:04;;;;;;;8.43;1.73;;;11.30;99.90;;;;;;4996050;28;20031;-87
2024/01/22 00:33:30;;;;;;;3.85;1.30;;;11.30;99.90;;;;;;5008217;28;20030;-87
2024/01/22 00:35:56;;;;;;;4.47;2.58;;;11.30;99.90;;;;;;5012866;28;20107;-87
2024/01/22 00:38:22;;;;;;;2.47;1.88;;;11.30;99.90;;;;;;5013252;28;20364;-86
2024/01/22 00:40:48;;;;;;;1.50;0.80;;;11.30;99.90;;;;;;5009055;28;20049;-87
2024/01/22 00:43:13;;;;;;;3.70;1.80;;;11.30;99.90;;;;;;5011955;28;20018;-87
2024/01/22 00:45:39;;;;;;;5.88;2.13;;;11.40;99.90;;;;;;5013212;28;20026;-86
2024/01/22 00:48:06;;;;;;;2.88;1.60;;;11.40;99.90;;;;;;5009305;28;20026;-87
2024/01/22 00:50:32;;;;;;;2.00;1.27;;;11.40;99.90;;;;;;5013859;28;20451;-87
2024/01/22 00:52:57;;;;;;;1.70;1.30;;;11.50;99.90;;;;;;5005036;28;20077;-88
2024/01/22 00:55:23;;;;;;;6.03;1.95;;;11.50;99.90;;;;;;5000421;28;20014;-87
2024/01/22 00:57:49;;;;;;;1.75;1.13;;;11.50;99.90;;;;;;4997623;28;20389;-87
2024/01/22 01:00:15;;;;;;;7.43;1.88;;;11.50;99.90;;;;;;4997033;28;20081;-77
2024/01/22 01:02:41;;;;;;;1.73;0.98;;;11.60;99.90;;;;;;5005906;28;20029;-75
2024/01/22 01:05:07;;;;;;;5.25;1.10;;;11.60;99.90;;;;;;5011827;28;20037;-75
2024/01/22 01:07:35;;;;;;;2.88;1.30;;;11.60;99.90;;;;;;5012245;28;20029;-75
2024/01/22 01:10:02;;;;;;;3.53;0.90;;;11.70;99.90;;;;;;5011105;28;20495;-75
2024/01/22 01:12:28;;;;;;;0.73;0.55;;;11.70;99.90;;;;;;5010161;28;20073;-75
2024/01/22 01:14:54;;;;;;;1.55;0.73;;;11.70;99.90;;;;;;5009220;28;20057;-75
2024/01/22 01:17:19;;;;;;;2.70;0.63;;;11.80;99.90;;;;;;5007447;28;20168;-76
2024/01/22 01:19:45;;;;;;;5.70;1.15;;;11.80;99.90;;;;;;5000855;28;20519;-75
2024/01/22 01:22:11;;;;;;;1.27;0.65;;;11.80;99.90;;;;;;5002917;28;20080;-75
2024/01/22 01:24:38;;;;;;;0.57;0.57;;;11.80;99.90;;;;;;5009735;28;20046;-75
2024/01/22 01:27:04;;;;;;;0.93;0.65;;;11.80;99.90;;;;;;4999022;28;20104;-75
2024/01/22 01:29:29;;;;;;;1.67;1.23;;;11.80;99.90;;;;;;4995749;28;20444;-75
2024/01/22 01:31:55;;;;;;;7.13;1.85;;;11.80;99.90;;;;;;5009828;28;20027;-76
2024/01/22 01:34:21;;;;;;;2.80;1.33;;;11.90;99.90;;;;;;5028158;28;20044;-76
2024/01/22 01:36:47;;;;;;;0.80;0.73;;;11.80;99.90;;;;;;5027382;28;20389;-76
2024/01/22 01:39:14;;;;;;;0.65;0.50;;;11.90;99.90;;;;;;5008810;28;20025;-76
2024/01/22 01:41:40;;;;;;;1.83;0.80;;;11.90;99.90;;;;;;5013292;28;20502;-76
2024/01/22 01:44:06;;;;;;;0.28;0.28;;;11.80;99.90;;;;;;5011946;28;20517;-76
2024/01/22 01:46:31;;;;;;;1.70;0.57;;;11.90;99.90;;;;;;5008898;28;20022;-76
2024/01/22 01:48:58;;;;;;;4.18;0.65;;;11.90;99.90;;;;;;5012193;28;20033;-76
2024/01/22 01:51:24;;;;;;;1.55;0.88;;;11.90;99.90;;;;;;5013718;28;20442;-76
2024/01/22 01:53:51;;;;;;;2.25;0.95;;;11.90;99.90;;;;;;5009817;28;20050;-77
2024/01/22 01:56:17;;;;;;;0.63;0.63;;;12.00;99.90;;;;;;5010415;28;20080;-76
2024/01/22 01:58:43;;;;;;;1.05;0.80;;;12.00;99.90;;;;;;5013065;28;20033;-76
2024/01/22 02:01:09;;;;;;;0.10;0.10;;;12.00;99.90;;;;;;5011182;28;20029;-76
2024/01/22 02:03:35;;;;;;;1.67;0.95;;;12.00;99.90;;;;;;5009536;28;20390;-76
2024/01/22 02:06:01;;;;;;;2.00;0.55;;;12.00;99.90;;;;;;5009983;28;20018;-77
2024/01/22 02:08:27;;;;;;;0.85;0.60;;;12.00;99.90;;;;;;5011217;28;20040;-76
2024/01/22 02:10:53;;;;;;;0.77;0.63;;;12.00;99.90;;;;;;5011400;28;20018;-76
2024/01/22 02:13:19;;;;;;;1.33;0.75;;;11.90;99.90;;;;;;5007124;28;20399;-77
2024/01/22 02:15:45;;;;;;;9.13;0.70;;;11.90;99.90;;;;;;5009008;28;20030;-77
2024/01/22 02:18:10;;;;;;;1.05;0.82;;;11.80;99.90;;;;;;5004026;28;20033;-77
2024/01/22 02:20:36;;;;;;;2.17;0.77;;;11.80;99.90;;;;;;5005522;28;20430;-76
2024/01/22 02:23:06;;;;;;;1.45;0.98;;;11.90;99.90;;;;;;5012153;28;20375;-76
2024/01/22 02:25:33;;;;;;;0.85;0.77;;;12.00;99.90;;;;;;5011285;28;20046;-76
2024/01/22 02:27:59;;;;;;;1.52;1.10;;;12.00;99.90;;;;;;5011289;28;20034;-76
2024/01/22 02:30:25;;;;;;;2.72;0.93;;;12.00;99.90;;;;;;5009154;28;20033;-76
2024/01/22 02:32:50;;;;;;;1.13;0.90;;;11.90;99.90;;;;;;5009095;28;20403;-75
2024/01/22 02:35:17;;;;;;;1.83;1.02;;;11.80;99.90;;;;;;5008616;28;20085;-76
2024/01/22 02:37:44;;;;;;;0.63;0.45;;;11.70;99.90;;;;;;5005661;28;20041;-76
2024/01/22 02:40:10;;;;;;;1.17;0.40;;;11.70;99.90;;;;;;5001741;28;20105;-75
2024/01/22 02:42:36;;;;;;;0.65;0.65;;;11.80;99.90;;;;;;5017091;28;20029;-75
2024/01/22 02:45:04;;;;;;;1.40;0.82;;;11.80;99.90;;;;;;4998615;28;20030;-76
2024/01/22 02:47:30;;;;;;;1.73;1.08;;;11.80;99.90;;;;;;4997855;28;20073;-76
2024/01/22 02:49:56;;;;;;;0.77;0.77;;;11.80;99.90;;;;;;4995999;28;20113;-74
2024/01/22 02:52:22;;;;;;;2.78;0.70;;;11.80;99.90;;;;;;5009548;28;21917;-75
2024/01/22 02:54:48;;;;;;;0.55;0.55;;;11.80;99.90;;;;;;4998804;28;20034;-75
2024/01/22 02:57:14;;;;;;;1.77;0.82;;;11.80;99.90;;;;;;5005133;28;20466;-74
2024/01/22 02:59:43;;;;;;;1.08;0.45;;;11.80;99.90;;;;;;5010377;28;20029;-75
2024/01/22 03:02:09;;;;;;;0.70;0.68;;;11.70;99.90;;;;;;5008378;28;20018;-75
2024/01/22 03:04:35;;;;;;;1.40;0.80;;;11.70;99.90;;;;;;5009370;28;20029;-75
2024/01/22 03:07:02;;;;;;;1.38;0.75;;;11.80;99.90;;;;;;5008219;28;20026;-78
2024/01/22 03:09:28;;;;;;;1.13;0.95;;;11.90;99.90;;;;;;5011068;28;20030;-77
2024/01/22 03:11:54;;;;;;;1.45;1.00;;;11.90;99.90;;;;;;5004995;28;20463;-77
2024/01/22 03:14:19;;;;;;;0.22;0.20;;;11.90;99.90;;;;;;4997649;28;20037;-78
2024/01/22 03:16:46;;;;;;;1.15;0.90;;;11.90;99.90;;;;;;5002083;28;20064;-75
2024/01/22 03:19:12;;;;;;;0.60;0.60;;;11.90;99.90;;;;;;4995456;28;20056;-75
2024/01/22 03:21:37;;;;;;;2.63;0.70;;;12.00;99.90;;;;;;5000149;28;20034;-75
2024/01/22 03:24:03;;;;;;;5.05;0.70;;;12.10;99.90;;;;;;5012421;28;20113;-75
2024/01/22 03:26:29;;;;;;;1.58;0.50;;;12.10;99.90;;;;;;5006192;28;20036;-75
2024/01/22 03:28:55;;;;;;;0.65;0.65;;;12.10;99.90;;;;;;5010855;28;20033;-76
2024/01/22 03:31:22;;;;;;;0.68;0.50;;;12.10;99.90;;;;;;5012810;28;20034;-74
2024/01/22 03:33:49;;;;;;;0.52;0.52;;;12.20;99.90;;;;;;5012390;28;20069;-73
2024/01/22 03:36:14;;;;;;;2.30;0.70;;;12.20;99.90;;;;;;5012673;28;20022;-75
2024/01/22 03:38:40;;;;;;;2.33;0.55;;;12.20;99.90;;;;;;5012205;28;20025;-75
2024/01/22 03:41:06;;;;;;;1.92;0.65;;;12.20;99.90;;;;;;4994881;28;20034;-76
2024/01/22 03:43:32;;;;;;;0.52;0.38;;;12.30;99.90;;;;;;5012331;28;20032;-76
2024/01/22 03:45:58;;;;;;;0.55;0.47;;;12.20;99.90;;;;;;4994922;28;20030;-76
2024/01/22 03:48:24;;;;;;;0.60;0.40;;;12.40;99.90;;;;;;5000029;28;20153;-75
2024/01/22 03:50:53;;;;;;;1.02;0.30;;;12.50;99.90;;;;;;5025440;28;20076;-76
2024/01/22 03:53:19;;;;;;;0.90;0.40;;;12.60;99.90;;;;;;5012256;28;20929;-75
2024/01/22 03:55:45;;;;;;;0.60;0.40;;;12.60;99.90;;;;;;5012441;28;20467;-76
2024/01/22 03:58:11;;;;;;;2.92;0.47;;;12.60;99.90;;;;;;5012116;28;20028;-75
2024/01/22 04:00:38;;;;;;;0.75;0.40;;;12.60;99.90;;;;;;5011008;28;20030;-75
2024/01/22 04:03:05;;;;;;;0.73;0.60;;;12.60;99.90;;;;;;5011929;28;20033;-74
2024/01/22 04:05:31;;;;;;;0.52;0.50;;;12.70;99.90;;;;;;5012535;28;20029;-75
2024/01/22 04:07:57;;;;;;;0.20;0.20;;;12.70;99.90;;;;;;5015531;28;20030;-74
2024/01/22 04:10:23;;;;;;;0.25;0.25;;;12.70;99.90;;;;;;5015863;28;20465;-75
2024/01/22 04:12:49;;;;;;;1.80;0.75;;;12.70;99.90;;;;;;5015667;28;20038;-74
2024/01/22 04:15:15;;;;;;;0.25;0.22;;;12.70;99.90;;;;;;5014535;28;20105;-74
2024/01/22 04:17:42;;;;;;;2.85;0.65;;;12.70;99.90;;;;;;5014472;28;20030;-74
2024/01/22 04:20:08;;;;;;;1.65;0.65;;;12.70;99.90;;;;;;5015476;28;20069;-75
2024/01/22 04:22:34;;;;;;;0.10;0.10;;;12.60;99.90;;;;;;5014457;28;20025;-74
2024/01/22 04:25:00;;;;;;;0.73;0.32;;;12.60;99.90;;;;;;5014196;28;20030;-75
2024/01/22 04:27:26;;;;;;;1.45;0.73;;;12.50;99.90;;;;;;5015473;28;20018;-74
2024/01/22 04:29:52;;;;;;;1.77;0.60;;;12.50;99.90;;;;;;5015541;28;20033;-74
2024/01/22 04:32:17;;;;;;;0.52;0.40;;;12.60;99.90;;;;;;5015489;28;20018;-75
2024/01/22 04:34:46;;;;;;;1.20;0.73;;;12.60;99.90;;;;;;5014228;28;20045;-75
2024/01/22 04:37:12;;;;;;;0.47;0.47;;;12.70;99.90;;;;;;5014076;28;20069;-75
2024/01/22 04:39:39;;;;;;;0.93;0.30;;;12.70;99.90;;;;;;5015097;28;20386;-75
2024/01/22 04:42:05;;;;;;;0.50;0.50;;;12.70;99.90;;;;;;5014892;28;20505;-75
2024/01/22 04:44:31;;;;;;;2.35;0.77;;;12.70;99.90;;;;;;5014248;28;20014;-75
2024/01/22 04:46:58;;;;;;;1.08;0.47;;;12.60;99.90;;;;;;5015292;28;20030;-76
2024/01/22 04:49:24;;;;;;;0.47;0.43;;;12.60;99.90;;;;;;5014912;28;20391;-75
2024/01/22 04:51:50;;;;;;;2.88;0.60;;;12.60;99.90;;;;;;5015194;28;20096;-75
2024/01/22 04:54:16;;;;;;;0.20;0.20;;;12.60;99.90;;;;;;5013623;28;20487;-75
2024/01/22 04:56:47;;;;;;;0.10;0.10;;;12.50;99.90;;;;;;5013637;28;20117;-76
2024/01/22 04:59:13;;;;;;;0.32;0.32;;;12.50;99.90;;;;;;5014784;28;20513;-75
2024/01/22 05:01:40;;;;;;;6.75;0.88;;;12.50;99.90;;;;;;5014865;28;20021;-75
2024/01/22 05:04:06;;;;;;;3.10;1.38;;;12.40;99.90;;;;;;5014693;28;20501;-76
2024/01/22 05:06:32;;;;;;;0.20;0.20;;;12.50;99.90;;;;;;5014902;28;20368;-75
2024/01/22 05:08:58;;;;;;;1.08;0.35;;;12.50;99.90;;;;;;5014334;28;20034;-75
2024/01/22 05:11:23;;;;;;;1.38;0.77;;;12.40;99.90;;;;;;5014615;28;20045;-76
2024/01/22 05:13:53;;;;;;;0.40;0.40;;;12.40;99.90;;;;;;5010127;28;20117;-75
2024/01/22 05:16:21;;;;;;;0.20;0.20;;;12.40;99.90;;;;;;5008340;28;20026;-76
2024/01/22 05:18:48;;;;;;;0.63;0.45;;;12.50;99.90;;;;;;5014648;28;20113;-76
2024/01/22 05:21:15;;;;;;;2.78;0.77;;;12.40;99.90;;;;;;5013367;28;20034;-76
2024/01/22 05:23:41;;;;;;;0.50;0.50;;;12.50;99.90;;;;;;5014223;28;20442;-76
2024/01/22 05:26:08;;;;;;;0.55;0.50;;;12.50;99.90;;;;;;5013069;28;20398;-76
2024/01/22 05:28:34;;;;;;;1.92;1.05;;;12.50;99.90;;;;;;5014460;28;20081;-77
2024/01/22 05:31:02;;;;;;;0.45;0.45;;;12.60;99.90;;;;;;5014366;28;20352;-75
2024/01/22 05:33:28;;;;;;;1.15;0.40;;;12.60;99.90;;;;;;5013006;28;20399;-76
2024/01/22 05:35:55;;;;;;;0.68;0.28;;;12.60;99.90;;;;;;4996779;28;20505;-78
2024/01/22 05:38:21;;;;;;;1.17;1.08;;;12.60;99.90;;;;;;5013823;28;20022;-77
2024/01/22 05:40:47;;;;;;;0.45;0.45;;;12.60;99.90;;;;;;5014153;28;20389;-78
2024/01/22 05:43:13;;;;;;;0.43;0.32;;;12.60;99.90;;;;;;5014457;28;20080;-76
2024/01/22 05:45:39;;;;;;;0.57;0.47;;;12.60;99.90;;;;;;5014031;28;20026;-77
2024/01/22 05:48:07;;;;;;;0.52;0.38;;;12.60;99.90;;;;;;5012934;28;20407;-77
2024/01/22 05:50:33;;;;;;;10.05;1.08;;;12.60;99.90;;;;;;5012654;28;20388;-76
2024/01/22 05:52:59;;;;;;;0.40;0.30;;;12.60;99.90;;;;;;5013915;28;20045;-78
2024/01/22 05:55:28;;;;;;;2.90;0.30;;;12.60;99.90;;;;;;5012900;28;20034;-77
2024/01/22 05:57:54;;;;;;;0.10;0.10;;;12.70;99.90;;;;;;5013534;28;20073;-77
2024/01/22 06:00:20;;;;;;;0.10;0.10;;;12.70;99.90;;;;;;5013354;28;20026;-76
2024/01/22 06:02:47;;;;;;;3.10;0.40;;;12.60;99.90;;;;;;5007975;28;20014;-75
2024/01/22 06:05:13;;;;;;;0.30;0.30;;;12.60;99.90;;;;;;5008061;28;20033;-76
2024/01/22 06:07:39;;;;;;;1.25;0.50;;;12.60;99.90;;;;;;5012196;28;20391;-76
2024/01/22 06:10:06;;;;;;;0.00;0.00;;;12.70;99.90;;;;;;5013622;28;20041;-76
2024/01/22 06:12:35;;;;;;;0.15;0.15;;;12.70;99.90;;;;;;5013516;28;20395;-76
2024/01/22 06:15:03;;;;;;;0.65;0.20;;;12.60;99.90;;;;;;5013619;28;20057;-76
2024/01/22 06:17:31;;;;;;;0.10;0.10;;;12.60;99.90;;;;;;5013575;28;20105;-76
2024/01/22 06:20:01;;;;;;;0.10;0.10;;;12.60;99.90;;;;;;5007980;28;20100;-77
2024/01/22 06:22:29;;;;;;;0.28;0.20;;;12.50;99.90;;;;;;5012125;28;20408;-79
2024/01/22 06:24:55;;;;;;;0.63;0.45;;;12.60;99.90;;;;;;5013448;28;20108;-78
2024/01/22 06:27:22;;;;;;;0.00;0.00;;;12.60;99.90;;;;;;5012105;28;20018;-80
2024/01/22 06:29:48;;;;;;;0.65;0.65;;;12.60;99.90;;;;;;5012934;28;20022;-76
2024/01/22 06:32:15;;;;;;;0.30;0.20;;;12.60;99.90;;;;;;5013238;28;20018;-76
2024/01/22 06:34:41;;;;;;;0.47;0.40;;;12.60;99.90;;;;;;5013273;28;20034;-75
2024/01/22 06:37:10;;;;;;;0.95;0.68;;;12.70;99.90;;;;;;5012725;28;20037;-77
2024/01/22 06:39:37;;;;;;;0.03;0.03;;;12.60;99.90;;;;;;5013507;28;20049;-76
2024/01/22 06:42:03;;;;;;;2.90;0.20;;;12.60;99.90;;;;;;5013137;28;20079;-76
2024/01/22 06:44:29;;;;;;;0.15;0.10;;;12.60;99.90;;;;;;5013355;28;20037;-75
2024/01/22 06:46:54;;;;;;;3.88;0.55;;;12.50;99.90;;;;;;5013017;28;20021;-75
2024/01/22 06:49:20;;;;;;;10.43;0.98;;;12.60;99.90;;;;;;5013217;28;20090;-75
2024/01/22 06:51:47;;;;;;;1.35;0.28;;;12.60;99.90;;;;;;5011394;28;20117;-76
2024/01/22 06:54:14;;;;;;;4.22;0.73;;;12.60;99.90;;;;;;5013109;28;20131;-76
2024/01/22 06:56:40;;;;;;;8.65;1.58;;;12.50;99.90;;;;;;5012840;28;20026;-75
2024/01/22 06:59:06;;;;;;;2.75;0.47;;;12.50;99.90;;;;;;5013213;28;20363;-75
2024/01/22 07:01:32;;;;;;;0.52;0.52;;;12.60;99.90;;;;;;5013044;28;20109;-75
2024/01/22 07:03:57;;;;;;;0.90;0.70;;;12.60;99.90;;;;;;5012909;28;20034;-75
2024/01/22 07:06:23;;;;;;;5.13;0.40;;;12.50;99.90;;;;;;5012652;28;20030;-75
2024/01/22 07:08:49;;;;;;;0.00;0.00;;;12.60;99.90;;;;;;5012820;28;20065;-75
2024/01/22 07:11:15;;;;;;;2.10;0.77;;;12.70;99.90;;;;;;5012927;28;20026;-75
2024/01/22 07:13:41;;;;;;;7.50;2.15;;;12.60;99.90;;;;;;5012681;28;20038;-75
2024/01/22 07:16:07;;;;;;;0.55;0.52;;;12.60;99.90;;;;;;4995357;28;20026;-75
2024/01/22 07:18:34;;;;;;;3.55;1.60;;;12.60;99.90;;;;;;5012647;28;20064;-75
2024/01/22 07:21:00;;;;;;;5.25;0.55;;;12.60;99.90;;;;;;5012600;28;20026;-75
2024/01/22 07:23:26;;;;;;;0.20;0.20;;;12.60;99.90;;;;;;5012563;28;20026;-75
2024/01/22 07:25:54;;;;;;;3.38;2.17;;;12.60;99.90;;;;;;5012943;28;20033;-74
2024/01/22 07:28:20;;;;;;;10.15;2.50;;;12.70;99.90;;;;;;5012530;28;20028;-75
2024/01/22 07:30:46;;;;;;;0.10;0.10;;;12.60;99.90;;;;;;5012742;28;20091;-75
2024/01/22 07:33:12;;;;;;;7.32;2.60;;;12.70;99.90;;;;;;5012631;28;20050;-76
2024/01/22 07:35:38;;;;;;;0.85;0.25;;;12.60;99.90;;;;;;5012471;28;20022;-75
2024/01/22 07:38:05;;;;;;;12.88;2.20;;;12.60;99.90;;;;;;4994906;28;20022;-75
2024/01/22 07:40:31;;;;;;;4.50;1.15;;;12.60;99.90;;;;;;5012549;28;20052;-75
2024/01/22 07:42:57;;;;;;;6.55;1.48;;;12.70;99.90;;;;;;5016616;28;20025;-74
2024/01/22 07:45:23;;;;;;;20.58;2.67;;;12.70;99.90;;;;;;5016393;28;20029;-75
2024/01/22 07:47:49;;;;;;;0.43;0.43;;;12.70;99.90;;;;;;5016225;28;20723;-75
2024/01/22 07:50:16;;;;;;;24.10;2.20;;;12.70;99.90;;;;;;5016176;28;20030;-74
2024/01/22 07:52:42;;;;;;;14.93;2.17;;;12.70;99.90;;;;;;5016012;28;20041;-75
2024/01/22 07:55:08;;;;;;;17.67;3.80;;;12.70;99.90;;;;;;5015144;28;20049;-75
2024/01/22 07:57:34;;;;;;;2.85;1.25;;;12.60;99.90;;;;;;5014787;28;20053;-75
2024/01/22 08:00:02;;;;;;;16.60;4.55;;;12.70;99.90;;;;;;5015687;28;20030;-75
2024/01/22 08:02:33;;;;;;;31.52;3.47;;;12.60;99.90;;;;;;5015688;28;20077;-75
2024/01/22 08:04:59;;;;;;;54.70;6.05;;;12.60;99.90;;;;;;5009478;28;20127;-75
2024/01/22 08:07:24;;;;;;;5.82;0.80;;;12.60;99.90;;;;;;5015297;28;20029;-74
2024/01/22 08:09:50;;;;;;;24.23;4.85;;;12.60;99.90;;;;;;5014807;28;20026;-75
2024/01/22 08:12:16;;;;;;;21.77;3.70;;;12.60;99.90;;;;;;5015298;28;20301;-75
2024/01/22 08:14:42;;;;;;;43.35;4.28;;;12.60;99.90;;;;;;5014430;28;20344;-74
2024/01/22 08:17:08;;;;;;;19.50;5.25;;;12.60;99.90;;;;;;4997790;28;20045;-75
2024/01/22 08:19:34;;;;;;;23.35;3.30;;;12.50;99.90;;;;;;5014672;28;20505;-75
2024/01/22 08:22:02;;;;;;;35.05;10.63;;;12.50;99.90;;;;;;5014864;28;20026;-76
2024/01/22 08:24:31;;;;;;;1.95;0.47;;;12.50;99.90;;;;;;5014919;28;20040;-75
2024/01/22 08:26:57;;;;;;;21.05;4.18;;;12.60;99.90;;;;;;5014949;28;20095;-75
2024/01/22 08:29:23;;;;;;;19.35;3.80;;;12.60;99.90;;;;;;5014755;28;20466;-75
2024/01/22 08:31:49;;;;;;;33.15;3.00;;;12.60;99.90;;;;;;5029635;28;20393;-77
2024/01/22 08:34:15;;;;;;;10.60;3.10;;;12.60;99.90;;;;;;5014663;28;20052;-76
2024/01/22 08:36:40;;;;;;;15.15;3.92;;;12.50;99.90;;;;;;5014459;28;20025;-78
2024/01/22 08:39:06;;;;;;;15.88;3.97;;;12.60;99.90;;;;;;5014484;28;20505;-78
2024/01/22 08:41:32;;;;;;;24.02;4.35;;;12.60;99.90;;;;;;5013376;28;20427;-76
2024/01/22 08:43:59;;;;;;;28.67;4.72;;;12.50;99.90;;;;;;5014358;28;20075;-76
2024/01/22 08:46:26;;;;;;;16.27;3.88;;;12.40;99.90;;;;;;5014215;28;20105;-75
2024/01/22 08:48:52;;;;;;;16.52;2.70;;;12.40;99.90;;;;;;5013918;28;20033;-76
2024/01/22 08:51:18;;;;;;;22.27;3.90;;;12.30;99.90;;;;;;5014438;28;20020;-76
2024/01/22 08:53:43;;;;;;;22.98;4.65;;;12.30;99.90;;;;;;5014094;28;20117;-76
2024/01/22 08:56:09;;;;;;;9.07;2.25;;;12.30;99.90;;;;;;5014281;28;20467;-75
2024/01/22 08:58:35;;;;;;;15.93;2.25;;;12.30;99.90;;;;;;5014352;28;20474;-75
2024/01/22 09:01:05;;;;;;;30.08;4.25;;;12.20;99.90;;;;;;5012825;28;20527;-75
2024/01/22 09:03:34;;;;;;;25.50;3.03;;;12.20;99.90;;;;;;5000161;28;20028;-75
2024/01/22 09:06:01;;;;;;;31.60;2.05;;;12.20;99.90;;;;;;5012882;28;20026;-75
2024/01/22 09:08:27;;;;;;;7.63;2.75;;;12.20;99.90;;;;;;5013929;28;20390;-75
2024/01/22 09:10:52;;;;;;;3.33;1.40;;;12.20;99.90;;;;;;5012654;28;20038;-76
2024/01/22 09:13:19;;;;;;;21.90;1.83;;;12.30;99.90;;;;;;5013990;28;20034;-77
2024/01/22 09:15:45;;;;;;;8.38;2.00;;;12.30;99.90;;;;;;5013925;28;20479;-75
2024/01/22 09:18:11;;;;;;;18.58;7.72;;;12.40;99.90;;;;;;5012553;28;20041;-76
2024/01/22 09:20:37;;;;;;;9.02;3.35;;;12.40;99.90;;;;;;5013791;28;20018;-76
2024/01/22 09:23:02;;;;;;;12.57;3.13;;;12.50;99.90;;;;;;5013858;28;20025;-77
2024/01/22 09:25:28;;;;;;;2.22;1.52;;;12.60;99.90;;;;;;5013446;28;20489;-76
2024/01/22 09:27:54;;;;;;;23.45;3.65;;;12.50;99.90;;;;;;5013362;28;20033;-76
2024/01/22 09:30:20;;;;;;;13.55;3.50;;;12.50;99.90;;;;;;5013003;28;20562;-76
2024/01/22 09:32:45;;;;;;;32.00;3.65;;;12.50;99.90;;;;;;5012369;28;20501;-76
2024/01/22 09:35:13;;;;;;;14.20;2.38;;;12.60;99.90;;;;;;5013096;28;20091;-75
2024/01/22 09:37:39;;;;;;;0.63;0.63;;;12.60;99.90;;;;;;5013195;28;20034;-77
2024/01/22 09:40:06;;;;;;;31.67;5.45;;;12.70;99.90;;;;;;5012003;28;20048;-76
2024/01/22 09:42:33;;;;;;;11.73;1.90;;;12.60;99.90;;;;;;5013220;28;20129;-77
2024/01/22 09:44:59;;;;;;;16.25;2.15;;;12.60;99.90;;;;;;5011658;28;20128;-77
2024/01/22 09:47:25;;;;;;;8.20;2.38;;;12.60;99.90;;;;;;5010924;28;20087;-78
2024/01/22 09:49:51;;;;;;;23.88;3.05;;;12.60;99.90;;;;;;5013473;28;20467;-77
2024/01/22 09:52:17;;;;;;;34.20;5.80;;;12.60;99.90;;;;;;5013351;28;20053;-78
2024/01/22 09:54:44;;;;;;;30.10;5.07;;;12.60;99.90;;;;;;5012048;28;20033;-78
2024/01/22 09:57:19;;;;;;;33.08;4.88;;;12.50;99.90;;;;;;5013216;28;20018;-77
2024/01/22 09:59:48;;;;;;;10.40;5.68;;;12.50;99.90;;;;;;5012575;28;20049;-77
2024/01/22 10:02:18;;;;;;;19.45;4.05;;;12.50;99.90;;;;;;5013014;28;20037;-78
2024/01/22 10:04:44;;;;;;;3.53;1.27;;;12.50;99.90;;;;;;5011850;28;20030;-77
2024/01/22 10:07:19;;;;;;;19.60;3.47;;;12.60;99.90;;;;;;5013123;28;20107;-77
2024/01/22 10:09:46;;;;;;;19.80;2.60;;;12.50;99.90;;;;;;5012637;28;20105;-76
2024/01/22 10:12:12;;;;;;;7.93;3.13;;;12.40;99.90;;;;;;5012730;28;20124;-77
2024/01/22 10:14:40;;;;;;;9.20;2.80;;;12.40;99.90;;;;;;5012784;28;20554;-77
2024/01/22 10:17:20;;;;;;;26.02;4.07;;;12.40;99.90;;;;;;5012663;28;20022;-75
2024/01/22 10:19:49;;;;;;;4.85;2.45;;;12.30;99.90;;;;;;5012904;28;20033;-76
2024/01/22 10:22:24;;;;;;;28.83;6.55;;;12.30;99.90;;;;;;5006181;28;20025;-76
2024/01/22 10:25:02;;;;;;;1.85;1.52;;;12.30;99.90;;;;;;5012543;28;20026;-76
2024/01/22 10:27:28;;;;;;;3.63;1.30;;;12.30;99.90;;;;;;5000038;28;20037;-77
2024/01/22 10:30:11;;;;;;;18.00;4.03;;;12.20;99.90;;;;;;5011318;28;20026;-76
2024/01/22 10:32:37;;;;;;;32.95;5.78;;;12.20;99.90;;;;;;5008806;28;20474;-77
2024/01/22 10:35:04;;;;;;;7.53;2.60;;;12.20;99.90;;;;;;5012347;28;20022;-77
2024/01/22 10:37:30;;;;;;;7.72;2.25;;;12.20;99.90;;;;;;4998382;28;20030;-77
2024/01/22 10:40:03;;;;;;;2.67;1.25;;;12.10;99.90;;;;;;5012577;28;20045;-77
2024/01/22 10:42:29;;;;;;;14.38;1.92;;;12.20;99.90;;;;;;5010366;28;20041;-77
2024/01/22 10:44:56;;;;;;;17.27;4.07;;;12.10;99.90;;;;;;5012659;28;20022;-77
2024/01/22 10:47:23;;;;;;;9.43;1.13;;;12.10;99.90;;;;;;5012304;28;20021;-77
2024/01/22 10:49:51;;;;;;;8.18;3.13;;;12.00;99.90;;;;;;5011026;28;20435;-76
2024/01/22 10:52:19;;;;;;;11.13;3.42;;;11.90;99.90;;;;;;5011346;28;20040;-76
2024/01/22 10:54:45;;;;;;;8.95;2.90;;;12.00;99.90;;;;;;5012515;28;20117;-75
2024/01/22 10:57:39;;;;;;;10.30;3.30;;;12.10;99.90;;;;;;5012357;28;20129;-76
2024/01/22 11:00:07;;;;;;;11.98;3.28;;;11.80;99.90;;;;;;5013106;28;20030;-75
2024/01/22 11:02:35;;;;;;;0.98;0.45;;;11.70;99.90;;;;;;5012792;28;20109;-75
2024/01/22 11:05:15;;;;;;;8.68;2.30;;;11.90;99.90;;;;;;5012950;28;20026;-76
2024/01/22 11:07:41;;;;;;;5.40;1.90;;;11.90;99.90;;;;;;5012844;28;20471;-77
2024/01/22 11:10:10;;;;;;;18.27;3.97;;;12.00;99.90;;;;;;5012886;28;20037;-78
2024/01/22 11:12:49;;;;;;;14.52;1.67;;;12.20;99.90;;;;;;5012524;28;20164;-76
2024/01/22 11:15:15;;;;;;;14.93;3.75;;;12.50;99.90;;;;;;5015120;28;20038;-74
2024/01/22 11:17:41;;;;;;;21.25;5.38;;;12.70;99.90;;;;;;5018064;28;20026;-76
2024/01/22 11:20:21;;;;;;;3.00;2.08;;;12.80;99.90;;;;;;5018139;28;20053;-78
2024/01/22 11:23:00;;;;;;;15.00;1.20;;;12.70;99.90;;;;;;5016798;28;20026;-83
2024/01/22 11:25:27;;;;;;;17.90;2.92;;;12.60;99.90;;;;;;5017914;28;20026;-86
2024/01/22 11:28:15;;;;;;;14.50;1.77;;;12.30;99.90;;;;;;5019019;28;20034;-86
2024/01/22 11:30:47;;;;;;;15.20;3.30;;;12.50;99.90;;;;;;5016059;28;20057;-86
2024/01/22 11:33:25;;;;;;;11.50;2.60;;;12.00;99.90;;;;;;5011521;28;20109;-87
2024/01/22 11:35:52;;;;;;;14.60;2.38;;;11.90;99.90;;;;;;5013367;28;20602;-83
2024/01/22 11:38:56;;;;;;;1.27;0.73;;;12.00;99.90;;;;;;5018843;28;20018;-86
2024/01/22 11:41:32;;;;;;;28.13;3.00;;;12.20;99.90;;;;;;4996928;28;20531;-86
2024/01/22 11:43:59;;;;;;;12.77;2.60;;;12.20;99.90;;;;;;4996941;28;20478;-86
2024/01/22 11:46:26;;;;;;;12.65;3.30;;;12.30;99.90;;;;;;5009167;28;20038;-86
2024/01/22 11:48:53;;;;;;;6.97;2.50;;;12.60;99.90;;;;;;5017941;28;20030;-85
2024/01/22 11:51:25;;;;;;;8.05;3.42;;;13.00;99.90;;;;;;5019099;28;20026;-82
2024/01/22 11:53:56;;;;;;;5.78;2.38;;;13.10;99.90;;;;;;5018823;28;20045;-85
2024/01/22 11:56:22;;;;;;;6.93;2.00;;;13.30;99.90;;;;;;5018360;28;20096;-85
2024/01/22 11:59:00;;;;;;;0.40;0.40;;;13.30;99.90;;;;;;5018928;28;20041;-83
2024/01/22 12:01:26;;;;;;;6.68;1.80;;;13.10;99.90;;;;;;5017884;28;20029;-85
2024/01/22 12:03:52;;;;;;;19.23;3.05;;;13.50;99.90;;;;;;5018761;28;20036;-86
2024/01/22 12:06:19;;;;;;;34.75;3.40;;;13.60;99.90;;;;;;5016908;28;20122;-86
2024/01/22 12:08:56;;;;;;;9.85;1.38;;;13.20;99.90;;;;;;5018229;28;20116;-86
2024/01/22 12:11:22;;;;;;;16.98;2.17;;;13.40;99.90;;;;;;5018912;28;20072;-83
2024/01/22 12:13:48;;;;;;;7.00;1.77;;;12.90;99.90;;;;;;5018934;28;20061;-83
2024/01/22 12:16:15;;;;;;;8.43;2.05;;;12.50;99.90;;;;;;5018261;28;20099;-86
2024/01/22 12:18:41;;;;;;;11.82;1.85;;;12.20;99.90;;;;;;5018986;28;20124;-85
2024/01/22 12:21:11;;;;;;;17.15;3.25;;;12.10;99.90;;;;;;5017999;28;20084;-85
2024/01/22 12:23:38;;;;;;;19.27;2.92;;;12.00;99.90;;;;;;5018702;28;20037;-84
2024/01/22 12:26:21;;;;;;;23.80;2.83;;;12.00;99.90;;;;;;5018261;28;20022;-85
2024/01/22 12:28:53;;;;;;;4.45;2.72;;;12.00;99.90;;;;;;5015546;28;20029;-83
2024/01/22 12:31:20;;;;;;;7.93;3.47;;;12.50;99.90;;;;;;5015740;28;20084;-83
2024/01/22 12:33:46;;;;;;;17.08;2.60;;;12.90;99.90;;;;;;5013720;28;20133;-85
2024/01/22 12:36:16;;;;;;;7.15;3.78;;;13.30;99.90;;;;;;5015741;28;20030;-84
2024/01/22 12:38:52;;;;;;;4.50;2.28;;;13.30;99.90;;;;;;5015106;28;20022;-86
2024/01/22 12:41:22;;;;;;;8.65;2.17;;;13.10;99.90;;;;;;5014372;28;20034;-85
2024/01/22 12:43:48;;;;;;;9.68;2.75;;;12.50;99.90;;;;;;5014461;28;20479;-86